sensor_id;sensor_type;location;lat;lon;timestamp;pressure;altitude;pressure_sealevel;temperature;humidity
43488;BME280;29078;41.932;25.554;2022-11-24T00:01:33;98538.06;;;11.65;75.16
43488;BME280;29078;41.932;25.554;2022-11-24T00:04:04;98417.13;;;10.96;75.13
43488;BME280;29078;41.932;25.554;2022-11-24T00:06:30;98502.00;;;11.32;74.65
43488;BME280;29078;41.932;25.554;2022-11-24T00:08:57;98558.97;;;11.86;74.20
43488;BME280;29078;41.932;25.554;2022-11-24T00:11:26;98563.88;;;11.89;74.62
43488;BME280;29078;41.932;25.554;2022-11-24T00:13:52;98513.13;;;11.48;74.49
43488;BME280;29078;41.932;25.554;2022-11-24T00:16:22;98574.03;;;11.92;74.40
43488;BME280;29078;41.932;25.554;2022-11-24T00:18:51;98566.69;;;11.94;74.34
43488;BME280;29078;41.932;25.554;2022-11-24T00:21:18;98569.16;;;11.89;74.26
43488;BME280;29078;41.932;25.554;2022-11-24T00:23:43;98413.84;;;11.07;74.07
43488;BME280;29078;41.932;25.554;2022-11-24T00:28:35;98448.53;;;11.30;74.32
43488;BME280;29078;41.932;25.554;2022-11-24T00:31:02;98564.19;;;12.06;73.95
43488;BME280;29078;41.932;25.554;2022-11-24T00:33:28;98562.97;;;12.08;74.31
43488;BME280;29078;41.932;25.554;2022-11-24T00:35:57;98441.00;;;11.34;74.14
43488;BME280;29078;41.932;25.554;2022-11-24T00:38:23;98490.31;;;11.60;74.17
43488;BME280;29078;41.932;25.554;2022-11-24T00:40:49;98523.97;;;11.84;74.12
43488;BME280;29078;41.932;25.554;2022-11-24T00:43:15;98485.44;;;11.57;74.62
43488;BME280;29078;41.932;25.554;2022-11-24T00:45:41;98507.16;;;11.65;74.75
43488;BME280;29078;41.932;25.554;2022-11-24T00:48:07;98446.94;;;11.23;74.74
43488;BME280;29078;41.932;25.554;2022-11-24T00:50:32;98577.59;;;12.11;74.95
43488;BME280;29078;41.932;25.554;2022-11-24T00:52:58;98576.38;;;12.14;74.66
43488;BME280;29078;41.932;25.554;2022-11-24T00:55:23;98574.75;;;12.13;74.67
43488;BME280;29078;41.932;25.554;2022-11-24T00:57:49;98481.78;;;11.51;74.69
43488;BME280;29078;41.932;25.554;2022-11-24T01:00:14;98493.38;;;11.57;74.67
43488;BME280;29078;41.932;25.554;2022-11-24T01:02:40;98363.53;;;10.89;74.58
43488;BME280;29078;41.932;25.554;2022-11-24T01:05:06;98354.22;;;10.79;74.07
43488;BME280;29078;41.932;25.554;2022-11-24T01:07:31;98528.25;;;11.85;74.68
43488;BME280;29078;41.932;25.554;2022-11-24T01:09:57;98516.88;;;11.78;74.43
43488;BME280;29078;41.932;25.554;2022-11-24T01:12:22;98493.69;;;11.80;74.28
43488;BME280;29078;41.932;25.554;2022-11-24T01:14:48;98473.56;;;11.72;74.03
43488;BME280;29078;41.932;25.554;2022-11-24T01:17:13;98563.66;;;12.29;74.34
43488;BME280;29078;41.932;25.554;2022-11-24T01:19:38;98537.47;;;12.14;74.15
43488;BME280;29078;41.932;25.554;2022-11-24T01:22:04;98559.59;;;12.26;74.02
43488;BME280;29078;41.932;25.554;2022-11-24T01:24:29;98493.88;;;11.85;73.96
43488;BME280;29078;41.932;25.554;2022-11-24T01:26:55;98560.41;;;12.27;74.24
43488;BME280;29078;41.932;25.554;2022-11-24T01:29:21;98423.31;;;11.34;74.11
43488;BME280;29078;41.932;25.554;2022-11-24T01:31:46;98566.72;;;12.26;74.29
43488;BME280;29078;41.932;25.554;2022-11-24T01:34:12;98515.63;;;11.94;74.53
43488;BME280;29078;41.932;25.554;2022-11-24T01:36:38;98561.84;;;12.23;74.38
43488;BME280;29078;41.932;25.554;2022-11-24T01:39:03;98449.88;;;11.53;74.37
43488;BME280;29078;41.932;25.554;2022-11-24T01:41:29;98493.69;;;11.73;74.30
43488;BME280;29078;41.932;25.554;2022-11-24T01:43:55;98519.81;;;12.08;74.24
43488;BME280;29078;41.932;25.554;2022-11-24T01:46:36;98550.63;;;12.27;74.40
43488;BME280;29078;41.932;25.554;2022-11-24T01:49:17;98448.81;;;11.60;74.18
43488;BME280;29078;41.932;25.554;2022-11-24T01:54:49;98537.97;;;11.98;73.97
43488;BME280;29078;41.932;25.554;2022-11-24T01:57:29;98458.63;;;11.46;73.45
43488;BME280;29078;41.932;25.554;2022-11-24T02:00:03;98493.19;;;11.52;73.00
43488;BME280;29078;41.932;25.554;2022-11-24T02:02:29;98496.44;;;11.54;73.04
43488;BME280;29078;41.932;25.554;2022-11-24T02:05:02;98483.88;;;11.42;72.81
43488;BME280;29078;41.932;25.554;2022-11-24T02:07:29;98543.34;;;11.71;72.88
43488;BME280;29078;41.932;25.554;2022-11-24T02:09:58;98558.19;;;11.72;72.35
43488;BME280;29078;41.932;25.554;2022-11-24T02:12:26;98506.22;;;11.46;72.35
43488;BME280;29078;41.932;25.554;2022-11-24T02:14:53;98511.75;;;11.32;72.21
43488;BME280;29078;41.932;25.554;2022-11-24T02:17:19;98519.69;;;11.32;71.75
43488;BME280;29078;41.932;25.554;2022-11-24T02:20:00;98551.91;;;11.60;72.51
43488;BME280;29078;41.932;25.554;2022-11-24T02:27:50;98493.72;;;11.16;71.75
43488;BME280;29078;41.932;25.554;2022-11-24T02:30:16;98482.94;;;11.04;71.96
43488;BME280;29078;41.932;25.554;2022-11-24T02:32:42;98561.13;;;11.38;71.61
43488;BME280;29078;41.932;25.554;2022-11-24T02:35:09;98559.88;;;11.47;70.85
43488;BME280;29078;41.932;25.554;2022-11-24T02:37:35;98529.25;;;11.13;71.12
43488;BME280;29078;41.932;25.554;2022-11-24T02:40:00;98509.53;;;11.09;71.13
43488;BME280;29078;41.932;25.554;2022-11-24T02:42:28;98417.22;;;10.49;70.84
43488;BME280;29078;41.932;25.554;2022-11-24T02:44:57;98508.34;;;11.05;71.20
43488;BME280;29078;41.932;25.554;2022-11-24T02:47:24;98276.63;;;9.63;70.69
43488;BME280;29078;41.932;25.554;2022-11-24T02:49:49;98462.47;;;10.79;71.19
43488;BME280;29078;41.932;25.554;2022-11-24T02:52:15;98499.63;;;10.98;71.09
43488;BME280;29078;41.932;25.554;2022-11-24T02:54:40;98528.03;;;11.09;71.37
43488;BME280;29078;41.932;25.554;2022-11-24T02:57:06;98527.66;;;10.99;71.32
43488;BME280;29078;41.932;25.554;2022-11-24T02:59:31;98519.31;;;11.02;72.21
43488;BME280;29078;41.932;25.554;2022-11-24T03:01:56;98463.91;;;10.62;72.23
43488;BME280;29078;41.932;25.554;2022-11-24T03:04:22;98439.16;;;10.43;72.43
43488;BME280;29078;41.932;25.554;2022-11-24T03:06:47;98532.91;;;11.05;72.55
43488;BME280;29078;41.932;25.554;2022-11-24T03:09:13;98581.88;;;11.34;72.52
43488;BME280;29078;41.932;25.554;2022-11-24T03:11:38;98528.47;;;10.99;72.70
43488;BME280;29078;41.932;25.554;2022-11-24T03:14:04;98541.66;;;10.99;72.94
43488;BME280;29078;41.932;25.554;2022-11-24T03:16:30;98554.25;;;10.97;73.15
43488;BME280;29078;41.932;25.554;2022-11-24T03:18:55;98570.91;;;11.24;74.09
43488;BME280;29078;41.932;25.554;2022-11-24T03:21:21;98468.38;;;10.55;74.21
43488;BME280;29078;41.932;25.554;2022-11-24T03:23:46;98515.47;;;10.78;74.66
43488;BME280;29078;41.932;25.554;2022-11-24T03:26:15;98583.94;;;11.19;74.88
43488;BME280;29078;41.932;25.554;2022-11-24T03:28:40;98470.22;;;10.55;74.21
43488;BME280;29078;41.932;25.554;2022-11-24T03:31:07;98443.44;;;10.44;74.44
43488;BME280;29078;41.932;25.554;2022-11-24T03:33:34;98577.41;;;11.28;74.28
43488;BME280;29078;41.932;25.554;2022-11-24T03:35:59;98317.38;;;9.61;74.67
43488;BME280;29078;41.932;25.554;2022-11-24T03:38:25;98526.84;;;10.85;74.88
43488;BME280;29078;41.932;25.554;2022-11-24T03:40:50;98489.91;;;10.65;75.28
43488;BME280;29078;41.932;25.554;2022-11-24T03:43:16;98477.53;;;10.59;74.60
43488;BME280;29078;41.932;25.554;2022-11-24T03:45:44;98500.06;;;10.55;74.29
43488;BME280;29078;41.932;25.554;2022-11-24T03:48:10;98579.03;;;11.09;74.77
43488;BME280;29078;41.932;25.554;2022-11-24T03:50:35;98500.25;;;10.73;74.50
43488;BME280;29078;41.932;25.554;2022-11-24T03:53:01;98552.03;;;11.01;74.56
43488;BME280;29078;41.932;25.554;2022-11-24T03:55:26;98580.66;;;11.04;74.46
43488;BME280;29078;41.932;25.554;2022-11-24T03:57:51;98523.19;;;10.86;74.29
43488;BME280;29078;41.932;25.554;2022-11-24T04:00:17;98599.78;;;11.26;74.27
43488;BME280;29078;41.932;25.554;2022-11-24T04:02:43;98556.91;;;10.91;74.23
43488;BME280;29078;41.932;25.554;2022-11-24T04:05:08;98605.69;;;11.21;74.15
43488;BME280;29078;41.932;25.554;2022-11-24T04:07:34;98558.34;;;10.80;73.59
43488;BME280;29078;41.932;25.554;2022-11-24T04:09:59;98546.75;;;10.68;73.71
43488;BME280;29078;41.932;25.554;2022-11-24T04:12:25;98589.41;;;10.98;73.52
43488;BME280;29078;41.932;25.554;2022-11-24T04:15:12;98607.09;;;10.97;73.79
43488;BME280;29078;41.932;25.554;2022-11-24T04:17:38;98558.13;;;10.55;72.87
43488;BME280;29078;41.932;25.554;2022-11-24T04:20:04;98597.13;;;10.73;72.92
43488;BME280;29078;41.932;25.554;2022-11-24T04:22:30;98614.41;;;10.82;72.78
43488;BME280;29078;41.932;25.554;2022-11-24T04:24:55;98517.41;;;10.16;72.96
43488;BME280;29078;41.932;25.554;2022-11-24T04:27:20;98464.53;;;9.64;72.59
43488;BME280;29078;41.932;25.554;2022-11-24T04:29:46;98599.75;;;10.73;73.03
43488;BME280;29078;41.932;25.554;2022-11-24T04:32:11;98517.88;;;10.20;72.79
43488;BME280;29078;41.932;25.554;2022-11-24T04:34:37;98545.28;;;10.26;72.63
43488;BME280;29078;41.932;25.554;2022-11-24T04:37:02;98573.13;;;10.48;72.55
43488;BME280;29078;41.932;25.554;2022-11-24T04:39:28;98510.72;;;10.07;72.96
43488;BME280;29078;41.932;25.554;2022-11-24T04:41:53;98599.75;;;10.66;72.77
43488;BME280;29078;41.932;25.554;2022-11-24T04:44:19;98520.88;;;10.10;72.52
43488;BME280;29078;41.932;25.554;2022-11-24T04:46:44;98636.94;;;10.85;73.00
43488;BME280;29078;41.932;25.554;2022-11-24T04:49:10;98267.66;;;8.50;72.45
43488;BME280;29078;41.932;25.554;2022-11-24T04:51:38;98604.22;;;10.53;73.02
43488;BME280;29078;41.932;25.554;2022-11-24T04:54:05;98539.38;;;10.30;72.92
43488;BME280;29078;41.932;25.554;2022-11-24T04:56:31;98646.09;;;10.89;72.81
43488;BME280;29078;41.932;25.554;2022-11-24T04:58:58;98442.06;;;9.68;72.44
43488;BME280;29078;41.932;25.554;2022-11-24T05:01:23;98579.03;;;10.57;72.89
43488;BME280;29078;41.932;25.554;2022-11-24T05:03:52;98502.81;;;10.14;72.10
43488;BME280;29078;41.932;25.554;2022-11-24T05:06:17;98641.63;;;10.96;72.71
43488;BME280;29078;41.932;25.554;2022-11-24T05:08:46;98551.41;;;10.46;72.13
43488;BME280;29078;41.932;25.554;2022-11-24T05:11:11;98591.44;;;10.69;71.81
43488;BME280;29078;41.932;25.554;2022-11-24T05:13:37;98577.41;;;10.42;72.09
43488;BME280;29078;41.932;25.554;2022-11-24T05:16:02;98505.84;;;10.04;71.23
43488;BME280;29078;41.932;25.554;2022-11-24T05:18:28;98596.50;;;10.64;71.33
43488;BME280;29078;41.932;25.554;2022-11-24T05:20:53;98603.41;;;10.59;71.98
43488;BME280;29078;41.932;25.554;2022-11-24T05:23:19;98565.56;;;10.25;71.54
43488;BME280;29078;41.932;25.554;2022-11-24T05:25:44;98651.56;;;10.80;71.33
43488;BME280;29078;41.932;25.554;2022-11-24T05:28:09;98656.44;;;10.83;71.26
43488;BME280;29078;41.932;25.554;2022-11-24T05:30:37;98660.50;;;10.86;70.74
43488;BME280;29078;41.932;25.554;2022-11-24T05:33:07;98662.13;;;10.87;71.50
43488;BME280;29078;41.932;25.554;2022-11-24T05:35:34;98640.38;;;10.72;70.42
43488;BME280;29078;41.932;25.554;2022-11-24T05:38:00;98668.22;;;10.81;71.24
43488;BME280;29078;41.932;25.554;2022-11-24T05:40:26;98617.75;;;10.36;71.09
43488;BME280;29078;41.932;25.554;2022-11-24T05:42:51;98640.75;;;10.56;71.27
43488;BME280;29078;41.932;25.554;2022-11-24T05:45:19;98520.38;;;9.80;71.26
43488;BME280;29078;41.932;25.554;2022-11-24T05:47:45;98604.59;;;10.43;71.16
43488;BME280;29078;41.932;25.554;2022-11-24T05:50:13;98673.31;;;10.89;70.57
43488;BME280;29078;41.932;25.554;2022-11-24T05:52:39;98681.25;;;10.96;70.54
43488;BME280;29078;41.932;25.554;2022-11-24T05:55:06;98654.19;;;10.74;70.54
43488;BME280;29078;41.932;25.554;2022-11-24T05:57:31;98633.06;;;10.67;70.21
43488;BME280;29078;41.932;25.554;2022-11-24T05:59:57;98665.56;;;10.74;70.50
43488;BME280;29078;41.932;25.554;2022-11-24T06:02:23;98674.94;;;10.90;70.35
43488;BME280;29078;41.932;25.554;2022-11-24T06:04:49;98689.38;;;11.01;70.07
43488;BME280;29078;41.932;25.554;2022-11-24T06:07:14;98693.84;;;11.00;70.20
43488;BME280;29078;41.932;25.554;2022-11-24T06:09:41;98692.00;;;10.94;70.14
43488;BME280;29078;41.932;25.554;2022-11-24T06:12:09;98610.25;;;10.40;70.57
43488;BME280;29078;41.932;25.554;2022-11-24T06:14:35;98567.78;;;10.22;70.24
43488;BME280;29078;41.932;25.554;2022-11-24T06:17:02;98692.63;;;11.03;70.04
43488;BME280;29078;41.932;25.554;2022-11-24T06:19:27;98613.13;;;10.45;70.04
43488;BME280;29078;41.932;25.554;2022-11-24T06:21:53;98632.44;;;10.65;70.07
43488;BME280;29078;41.932;25.554;2022-11-24T06:24:18;98668.81;;;10.76;70.32
43488;BME280;29078;41.932;25.554;2022-11-24T06:26:44;98659.09;;;10.83;70.33
43488;BME280;29078;41.932;25.554;2022-11-24T06:29:09;98610.31;;;10.53;69.99
43488;BME280;29078;41.932;25.554;2022-11-24T06:31:35;98709.09;;;11.11;69.98
43488;BME280;29078;41.932;25.554;2022-11-24T06:34:00;98627.13;;;10.45;70.25
43488;BME280;29078;41.932;25.554;2022-11-24T06:36:26;98702.41;;;11.16;70.14
43488;BME280;29078;41.932;25.554;2022-11-24T06:38:52;98715.22;;;11.32;69.76
43488;BME280;29078;41.932;25.554;2022-11-24T06:41:18;98722.16;;;11.39;70.01
43488;BME280;29078;41.932;25.554;2022-11-24T06:43:44;98674.75;;;11.11;69.82
43488;BME280;29078;41.932;25.554;2022-11-24T06:46:10;98727.84;;;11.43;69.85
43488;BME280;29078;41.932;25.554;2022-11-24T06:48:36;98719.91;;;11.43;70.08
43488;BME280;29078;41.932;25.554;2022-11-24T06:51:05;98643.03;;;10.92;69.65
43488;BME280;29078;41.932;25.554;2022-11-24T06:53:31;98691.22;;;11.13;69.60
43488;BME280;29078;41.932;25.554;2022-11-24T06:55:58;98734.13;;;11.49;69.67
43488;BME280;29078;41.932;25.554;2022-11-24T06:58:25;98646.09;;;10.89;69.49
43488;BME280;29078;41.932;25.554;2022-11-24T07:00:50;98679.81;;;11.13;69.90
43488;BME280;29078;41.932;25.554;2022-11-24T07:03:16;98726.00;;;11.50;69.26
43488;BME280;29078;41.932;25.554;2022-11-24T07:05:43;98738.41;;;11.63;69.38
43488;BME280;29078;41.932;25.554;2022-11-24T07:08:09;98675.19;;;11.22;69.18
43488;BME280;29078;41.932;25.554;2022-11-24T07:10:34;98711.97;;;11.50;68.89
43488;BME280;29078;41.932;25.554;2022-11-24T07:13:00;98695.91;;;11.38;69.04
43488;BME280;29078;41.932;25.554;2022-11-24T07:15:28;98731.88;;;11.72;68.80
43488;BME280;29078;41.932;25.554;2022-11-24T07:17:54;98682.09;;;11.29;68.75
43488;BME280;29078;41.932;25.554;2022-11-24T07:20:20;98509.16;;;10.26;68.82
43488;BME280;29078;41.932;25.554;2022-11-24T07:22:46;98649.78;;;11.27;68.80
43488;BME280;29078;41.932;25.554;2022-11-24T07:25:11;98744.91;;;11.87;68.59
43488;BME280;29078;41.932;25.554;2022-11-24T07:27:39;98752.88;;;11.80;68.40
43488;BME280;29078;41.932;25.554;2022-11-24T07:30:06;98642.88;;;11.33;68.25
43488;BME280;29078;41.932;25.554;2022-11-24T07:32:31;98759.59;;;11.89;68.66
43488;BME280;29078;41.932;25.554;2022-11-24T07:34:57;98682.28;;;11.54;68.60
43488;BME280;29078;41.932;25.554;2022-11-24T07:37:22;98734.34;;;12.00;67.68
43488;BME280;29078;41.932;25.554;2022-11-24T07:39:48;98671.69;;;11.61;67.67
43488;BME280;29078;41.932;25.554;2022-11-24T07:42:13;98778.28;;;12.07;67.99
43488;BME280;29078;41.932;25.554;2022-11-24T07:44:39;98638.78;;;11.50;67.51
43488;BME280;29078;41.932;25.554;2022-11-24T07:47:05;98645.69;;;11.51;67.32
43488;BME280;29078;41.932;25.554;2022-11-24T07:49:30;98693.66;;;11.81;67.61
43488;BME280;29078;41.932;25.554;2022-11-24T07:51:56;98716.84;;;11.86;67.72
43488;BME280;29078;41.932;25.554;2022-11-24T07:54:21;98654.59;;;11.70;67.56
43488;BME280;29078;41.932;25.554;2022-11-24T07:56:47;98738.97;;;12.24;67.53
43488;BME280;29078;41.932;25.554;2022-11-24T07:59:13;98501.06;;;10.87;67.34
43488;BME280;29078;41.932;25.554;2022-11-24T08:01:39;98741.34;;;12.39;66.92
43488;BME280;29078;41.932;25.554;2022-11-24T08:04:05;98422.91;;;10.40;67.04
43488;BME280;29078;41.932;25.554;2022-11-24T08:06:30;98646.03;;;11.88;66.63
43488;BME280;29078;41.932;25.554;2022-11-24T08:08:56;98742.78;;;12.41;66.56
43488;BME280;29078;41.932;25.554;2022-11-24T08:11:22;98736.81;;;12.53;66.46
43488;BME280;29078;41.932;25.554;2022-11-24T08:13:47;98721.63;;;12.35;66.37
43488;BME280;29078;41.932;25.554;2022-11-24T08:16:14;98637.72;;;11.91;66.30
43488;BME280;29078;41.932;25.554;2022-11-24T08:18:41;98701.69;;;12.26;66.36
43488;BME280;29078;41.932;25.554;2022-11-24T08:21:11;98737.00;;;12.64;66.46
43488;BME280;29078;41.932;25.554;2022-11-24T08:23:37;98705.94;;;12.40;66.66
43488;BME280;29078;41.932;25.554;2022-11-24T08:26:08;98701.00;;;12.50;66.75
43488;BME280;29078;41.932;25.554;2022-11-24T08:28:35;98747.13;;;12.81;66.69
43488;BME280;29078;41.932;25.554;2022-11-24T08:31:04;98715.94;;;12.83;66.04
43488;BME280;29078;41.932;25.554;2022-11-24T08:33:30;98700.31;;;12.68;66.19
43488;BME280;29078;41.932;25.554;2022-11-24T08:35:56;98753.25;;;13.13;66.46
43488;BME280;29078;41.932;25.554;2022-11-24T08:38:26;98675.41;;;12.76;65.99
43488;BME280;29078;41.932;25.554;2022-11-24T08:40:51;98726.28;;;12.91;65.56
43488;BME280;29078;41.932;25.554;2022-11-24T08:43:16;98753.41;;;13.24;65.38
43488;BME280;29078;41.932;25.554;2022-11-24T08:45:42;98655.50;;;12.66;65.20
43488;BME280;29078;41.932;25.554;2022-11-24T08:48:07;98644.31;;;12.64;65.11
43488;BME280;29078;41.932;25.554;2022-11-24T08:50:33;98736.53;;;13.19;65.10
43488;BME280;29078;41.932;25.554;2022-11-24T08:52:59;98751.19;;;13.21;64.93
43488;BME280;29078;41.932;25.554;2022-11-24T08:55:25;98722.56;;;12.98;64.79
43488;BME280;29078;41.932;25.554;2022-11-24T08:57:50;98680.50;;;12.77;64.87
43488;BME280;29078;41.932;25.554;2022-11-24T09:00:16;98676.88;;;12.71;64.93
43488;BME280;29078;41.932;25.554;2022-11-24T09:02:55;98698.16;;;12.90;64.37
43488;BME280;29078;41.932;25.554;2022-11-24T09:05:20;98624.16;;;12.63;64.26
43488;BME280;29078;41.932;25.554;2022-11-24T09:07:46;98731.50;;;13.35;64.11
43488;BME280;29078;41.932;25.554;2022-11-24T09:10:11;98652.13;;;12.84;63.69
43488;BME280;29078;41.932;25.554;2022-11-24T09:12:37;98718.19;;;13.17;63.35
43488;BME280;29078;41.932;25.554;2022-11-24T09:15:03;98689.53;;;13.01;63.03
43488;BME280;29078;41.932;25.554;2022-11-24T09:17:29;98684.72;;;13.16;63.31
43488;BME280;29078;41.932;25.554;2022-11-24T09:19:54;98679.63;;;13.15;63.17
43488;BME280;29078;41.932;25.554;2022-11-24T09:22:20;98695.63;;;13.33;63.03
43488;BME280;29078;41.932;25.554;2022-11-24T09:24:45;98631.66;;;12.98;62.59
43488;BME280;29078;41.932;25.554;2022-11-24T09:27:11;98619.06;;;12.93;62.40
43488;BME280;29078;41.932;25.554;2022-11-24T09:29:36;98676.47;;;13.31;62.34
43488;BME280;29078;41.932;25.554;2022-11-24T09:32:02;98726.53;;;13.71;61.97
43488;BME280;29078;41.932;25.554;2022-11-24T09:34:27;98633.53;;;13.22;61.84
43488;BME280;29078;41.932;25.554;2022-11-24T09:36:53;98632.75;;;13.15;61.88
43488;BME280;29078;41.932;25.554;2022-11-24T09:39:18;98638.97;;;13.27;61.69
43488;BME280;29078;41.932;25.554;2022-11-24T09:44:50;98722.09;;;13.89;61.88
43488;BME280;29078;41.932;25.554;2022-11-24T09:48:02;98714.88;;;13.96;61.85
43488;BME280;29078;41.932;25.554;2022-11-24T09:50:35;98646.66;;;13.60;61.50
43488;BME280;29078;41.932;25.554;2022-11-24T09:53:02;98706.53;;;14.11;61.19
43488;BME280;29078;41.932;25.554;2022-11-24T09:55:49;98705.31;;;14.14;60.61
43488;BME280;29078;41.932;25.554;2022-11-24T10:00:51;98593.38;;;13.44;60.85
43488;BME280;29078;41.932;25.554;2022-11-24T10:03:29;98623.97;;;13.64;60.64
43488;BME280;29078;41.932;25.554;2022-11-24T10:05:55;98606.22;;;13.65;60.97
43488;BME280;29078;41.932;25.554;2022-11-24T10:11:06;98646.59;;;14.04;60.20
43488;BME280;29078;41.932;25.554;2022-11-24T10:16:14;98701.78;;;14.56;59.48
43488;BME280;29078;41.932;25.554;2022-11-24T10:24:18;98693.44;;;14.83;59.07
43488;BME280;29078;41.932;25.554;2022-11-24T10:26:59;98642.56;;;14.68;58.55
43488;BME280;29078;41.932;25.554;2022-11-24T10:29:39;98588.53;;;14.44;57.03
43488;BME280;29078;41.932;25.554;2022-11-24T10:32:26;98648.09;;;14.96;56.88
43488;BME280;29078;41.932;25.554;2022-11-24T10:34:59;98590.13;;;14.75;56.50
43488;BME280;29078;41.932;25.554;2022-11-24T10:42:59;98647.31;;;15.31;56.04
43488;BME280;29078;41.932;25.554;2022-11-24T10:45:26;98679.50;;;15.52;55.49
43488;BME280;29078;41.932;25.554;2022-11-24T10:47:52;98634.94;;;15.24;55.33
43488;BME280;29078;41.932;25.554;2022-11-24T10:50:31;98460.19;;;14.20;55.75
43488;BME280;29078;41.932;25.554;2022-11-24T10:58:37;98600.84;;;15.10;54.81
43488;BME280;29078;41.932;25.554;2022-11-24T11:06:13;98653.81;;;15.35;55.50
43488;BME280;29078;41.932;25.554;2022-11-24T11:08:39;98546.09;;;14.67;55.61
43488;BME280;29078;41.932;25.554;2022-11-24T11:11:27;98667.69;;;15.48;55.96
43488;BME280;29078;41.932;25.554;2022-11-24T11:13:55;98656.59;;;15.51;56.00
43488;BME280;29078;41.932;25.554;2022-11-24T11:16:33;98628.38;;;15.39;55.17
43488;BME280;29078;41.932;25.554;2022-11-24T11:19:01;98585.78;;;14.92;54.46
43488;BME280;29078;41.932;25.554;2022-11-24T11:21:33;98624.19;;;15.43;54.17
43488;BME280;29078;41.932;25.554;2022-11-24T11:24:00;98611.81;;;15.37;54.10
43488;BME280;29078;41.932;25.554;2022-11-24T11:26:35;98661.97;;;15.75;53.55
43488;BME280;29078;41.932;25.554;2022-11-24T11:29:12;98661.25;;;15.79;52.78
43488;BME280;29078;41.932;25.554;2022-11-24T11:31:38;98673.63;;;15.85;52.70
43488;BME280;29078;41.932;25.554;2022-11-24T11:34:13;98665.06;;;15.83;50.70
43488;BME280;29078;41.932;25.554;2022-11-24T11:36:43;98657.56;;;15.69;52.00
43488;BME280;29078;41.932;25.554;2022-11-24T11:39:37;98661.72;;;15.88;51.57
43488;BME280;29078;41.932;25.554;2022-11-24T11:42:31;98662.06;;;15.92;51.94
43488;BME280;29078;41.932;25.554;2022-11-24T11:45:10;98664.25;;;15.95;50.71
43488;BME280;29078;41.932;25.554;2022-11-24T11:47:43;98663.44;;;15.94;52.02
43488;BME280;29078;41.932;25.554;2022-11-24T11:50:14;98659.28;;;15.86;52.06
43488;BME280;29078;41.932;25.554;2022-11-24T11:58:21;98672.13;;;15.89;52.13
43488;BME280;29078;41.932;25.554;2022-11-24T12:06:49;98677.94;;;15.75;52.25
43488;BME280;29078;41.932;25.554;2022-11-24T12:09:32;98679.56;;;15.64;51.64
43488;BME280;29078;41.932;25.554;2022-11-24T12:18:13;98676.81;;;15.52;53.06
43488;BME280;29078;41.932;25.554;2022-11-24T12:20:50;98680.06;;;15.43;53.01
43488;BME280;29078;41.932;25.554;2022-11-24T12:26:16;98685.25;;;15.38;53.39
43488;BME280;29078;41.932;25.554;2022-11-24T12:50:53;98598.72;;;14.88;54.26
43488;BME280;29078;41.932;25.554;2022-11-24T12:53:31;98672.41;;;15.35;54.00
43488;BME280;29078;41.932;25.554;2022-11-24T12:56:04;98670.56;;;15.35;54.39
43488;BME280;29078;41.932;25.554;2022-11-24T12:58:47;98641.28;;;15.12;54.10
43488;BME280;29078;41.932;25.554;2022-11-24T13:04:09;98675.91;;;15.35;54.06
43488;BME280;29078;41.932;25.554;2022-11-24T13:06:51;98622.78;;;14.93;54.57
43488;BME280;29078;41.932;25.554;2022-11-24T13:09:18;98634.59;;;15.09;54.39
43488;BME280;29078;41.932;25.554;2022-11-24T13:11:49;98649.28;;;15.23;54.23
43488;BME280;29078;41.932;25.554;2022-11-24T13:14:27;98615.41;;;15.07;54.39
43488;BME280;29078;41.932;25.554;2022-11-24T13:16:59;98678.09;;;15.50;54.09
43488;BME280;29078;41.932;25.554;2022-11-24T13:19:35;98661.09;;;15.39;53.63
43488;BME280;29078;41.932;25.554;2022-11-24T13:22:02;98679.63;;;15.57;53.94
43488;BME280;29078;41.932;25.554;2022-11-24T13:24:37;98613.66;;;15.13;53.38
43488;BME280;29078;41.932;25.554;2022-11-24T13:29:58;98649.41;;;15.29;53.49
43488;BME280;29078;41.932;25.554;2022-11-24T13:42:17;98688.63;;;15.56;53.50
43488;BME280;29078;41.932;25.554;2022-11-24T13:44:50;98684.97;;;15.57;53.70
43488;BME280;29078;41.932;25.554;2022-11-24T13:50:00;98603.59;;;15.03;53.83
43488;BME280;29078;41.932;25.554;2022-11-24T13:52:36;98686.19;;;15.55;53.97
43488;BME280;29078;41.932;25.554;2022-11-24T13:55:19;98471.09;;;14.12;54.15
43488;BME280;29078;41.932;25.554;2022-11-24T13:57:49;98678.19;;;15.32;54.32
43488;BME280;29078;41.932;25.554;2022-11-24T14:02:50;98557.72;;;14.43;54.75
43488;BME280;29078;41.932;25.554;2022-11-24T14:05:18;98652.03;;;15.05;54.75
43488;BME280;29078;41.932;25.554;2022-11-24T14:07:48;98599.00;;;14.69;55.24
43488;BME280;29078;41.932;25.554;2022-11-24T14:10:18;98657.31;;;14.93;55.71
43488;BME280;29078;41.932;25.554;2022-11-24T14:12:45;98716.34;;;15.25;56.29
43488;BME280;29078;41.932;25.554;2022-11-24T14:15:25;98644.41;;;14.67;57.28
43488;BME280;29078;41.932;25.554;2022-11-24T14:17:52;98611.13;;;14.35;57.34
43488;BME280;29078;41.932;25.554;2022-11-24T14:20:23;98669.34;;;14.66;57.50
43488;BME280;29078;41.932;25.554;2022-11-24T14:22:49;98504.97;;;13.31;57.66
43488;BME280;29078;41.932;25.554;2022-11-24T14:25:32;98686.41;;;14.58;57.72
43488;BME280;29078;41.932;25.554;2022-11-24T14:27:59;98689.25;;;14.45;57.87
43488;BME280;29078;41.932;25.554;2022-11-24T14:30:25;98723.09;;;14.50;57.72
43488;BME280;29078;41.932;25.554;2022-11-24T14:33:02;98705.22;;;14.39;57.65
43488;BME280;29078;41.932;25.554;2022-11-24T14:35:30;98684.44;;;14.17;57.42
43488;BME280;29078;41.932;25.554;2022-11-24T14:37:56;98718.44;;;14.27;57.76
43488;BME280;29078;41.932;25.554;2022-11-24T14:43:21;98692.31;;;13.87;57.79
43488;BME280;29078;41.932;25.554;2022-11-24T14:45:58;98669.38;;;13.75;57.99